sensor_id;sensor_type;location;lat;lon;timestamp;pressure;altitude;pressure_sealevel;temperature;humidity
6464;BME280;3265;42.694;23.282;2023-07-31T00:01:21;71132.38;;;-143.21;66.40
6464;BME280;3265;42.694;23.282;2023-07-31T00:03:49;71132.38;;;-143.21;65.80
6464;BME280;3265;42.694;23.282;2023-07-31T00:06:17;71146.25;;;-143.21;66.21
6464;BME280;3265;42.694;23.282;2023-07-31T00:08:44;71142.28;;;-143.21;66.59
6464;BME280;3265;42.694;23.282;2023-07-31T00:11:11;71126.41;;;-143.21;66.22
6464;BME280;3265;42.694;23.282;2023-07-31T00:13:37;71130.38;;;-143.21;66.10
6464;BME280;3265;42.694;23.282;2023-07-31T00:16:04;71128.41;;;-143.21;66.60
6464;BME280;3265;42.694;23.282;2023-07-31T00:18:31;71142.28;;;-143.21;67.24
6464;BME280;3265;42.694;23.282;2023-07-31T00:20:58;71146.25;;;-143.21;68.78
6464;BME280;3265;42.694;23.282;2023-07-31T00:23:26;71152.19;;;-143.21;70.02
6464;BME280;3265;42.694;23.282;2023-07-31T00:25:53;71164.09;;;-143.21;71.07
6464;BME280;3265;42.694;23.282;2023-07-31T00:28:19;71158.13;;;-143.21;71.42
6464;BME280;3265;42.694;23.282;2023-07-31T00:30:46;71174.00;;;-143.21;72.70
6464;BME280;3265;42.694;23.282;2023-07-31T00:33:13;71170.03;;;-143.21;73.54
6464;BME280;3265;42.694;23.282;2023-07-31T00:35:40;71175.97;;;-143.21;73.76
6464;BME280;3265;42.694;23.282;2023-07-31T00:38:07;71181.94;;;-143.21;74.36
6464;BME280;3265;42.694;23.282;2023-07-31T00:40:36;71179.94;;;-143.21;74.49
6464;BME280;3265;42.694;23.282;2023-07-31T00:43:03;71174.00;;;-143.21;74.65
6464;BME280;3265;42.694;23.282;2023-07-31T00:45:30;71170.03;;;-143.21;74.38
6464;BME280;3265;42.694;23.282;2023-07-31T00:47:57;71164.09;;;-143.21;74.30
6464;BME280;3265;42.694;23.282;2023-07-31T00:50:24;71160.13;;;-143.21;74.09
6464;BME280;3265;42.694;23.282;2023-07-31T00:52:51;71152.19;;;-143.21;74.08
6464;BME280;3265;42.694;23.282;2023-07-31T00:55:18;71150.22;;;-143.21;73.69
6464;BME280;3265;42.694;23.282;2023-07-31T00:57:49;71156.16;;;-143.21;73.70
6464;BME280;3265;42.694;23.282;2023-07-31T01:00:17;71152.19;;;-143.21;73.72
6464;BME280;3265;42.694;23.282;2023-07-31T01:02:44;71170.03;;;-143.21;74.50
6464;BME280;3265;42.694;23.282;2023-07-31T01:05:11;71183.91;;;-143.21;75.51
6464;BME280;3265;42.694;23.282;2023-07-31T01:07:44;71189.84;;;-143.21;75.90
6464;BME280;3265;42.694;23.282;2023-07-31T01:10:16;71207.69;;;-143.21;77.25
6464;BME280;3265;42.694;23.282;2023-07-31T01:12:45;71221.56;;;-143.21;77.58
6464;BME280;3265;42.694;23.282;2023-07-31T01:15:15;71223.56;;;-143.21;78.40
6464;BME280;3265;42.694;23.282;2023-07-31T01:17:43;71211.66;;;-143.21;78.21
6464;BME280;3265;42.694;23.282;2023-07-31T01:20:12;71215.63;;;-143.21;78.20
6464;BME280;3265;42.694;23.282;2023-07-31T01:23:08;71249.34;;;-143.21;79.57
6464;BME280;3265;42.694;23.282;2023-07-31T01:25:56;71249.34;;;-143.21;80.26
6464;BME280;3265;42.694;23.282;2023-07-31T01:28:32;71263.22;;;-143.21;80.97
6464;BME280;3265;42.694;23.282;2023-07-31T01:31:00;71267.19;;;-143.21;81.69
6464;BME280;3265;42.694;23.282;2023-07-31T01:33:29;71269.16;;;-143.21;82.10
6464;BME280;3265;42.694;23.282;2023-07-31T01:35:56;71265.19;;;-143.21;82.44
6464;BME280;3265;42.694;23.282;2023-07-31T01:38:23;71251.31;;;-143.21;81.94
6464;BME280;3265;42.694;23.282;2023-07-31T01:40:51;71255.28;;;-143.21;82.20
6464;BME280;3265;42.694;23.282;2023-07-31T01:43:20;71245.38;;;-143.21;82.03
6464;BME280;3265;42.694;23.282;2023-07-31T01:45:47;71261.22;;;-143.21;82.73
6464;BME280;3265;42.694;23.282;2023-07-31T01:48:13;71263.22;;;-143.21;83.48
6464;BME280;3265;42.694;23.282;2023-07-31T01:50:40;71271.13;;;-143.21;83.74
6464;BME280;3265;42.694;23.282;2023-07-31T01:53:07;71273.13;;;-143.21;83.73
6464;BME280;3265;42.694;23.282;2023-07-31T01:55:34;71273.13;;;-143.21;84.00
6464;BME280;3265;42.694;23.282;2023-07-31T01:58:01;71271.13;;;-143.21;84.07
6464;BME280;3265;42.694;23.282;2023-07-31T02:00:29;71267.19;;;-143.21;84.06
6464;BME280;3265;42.694;23.282;2023-07-31T02:02:56;71265.19;;;-143.21;83.77
6464;BME280;3265;42.694;23.282;2023-07-31T02:05:23;71265.19;;;-143.21;83.54
6464;BME280;3265;42.694;23.282;2023-07-31T02:07:50;71267.19;;;-143.21;83.97
6464;BME280;3265;42.694;23.282;2023-07-31T02:10:17;71255.28;;;-143.21;83.52
6464;BME280;3265;42.694;23.282;2023-07-31T02:12:43;71243.38;;;-143.21;83.04
6464;BME280;3265;42.694;23.282;2023-07-31T02:15:10;71235.44;;;-143.21;82.72
6464;BME280;3265;42.694;23.282;2023-07-31T02:17:38;71241.41;;;-143.21;82.96
6464;BME280;3265;42.694;23.282;2023-07-31T02:20:06;71237.44;;;-143.21;83.43
6464;BME280;3265;42.694;23.282;2023-07-31T02:22:33;71235.44;;;-143.21;83.09
6464;BME280;3265;42.694;23.282;2023-07-31T02:25:00;71239.41;;;-143.21;83.08
6464;BME280;3265;42.694;23.282;2023-07-31T02:27:27;71245.38;;;-143.21;83.73
6464;BME280;3265;42.694;23.282;2023-07-31T02:29:56;71237.44;;;-143.21;83.73
6464;BME280;3265;42.694;23.282;2023-07-31T02:32:24;71225.53;;;-143.21;82.91
6464;BME280;3265;42.694;23.282;2023-07-31T02:34:52;71229.50;;;-143.21;83.41
6464;BME280;3265;42.694;23.282;2023-07-31T02:37:19;71221.56;;;-143.21;83.30
6464;BME280;3265;42.694;23.282;2023-07-31T02:39:46;71239.41;;;-143.21;83.54
6464;BME280;3265;42.694;23.282;2023-07-31T02:42:14;71239.41;;;-143.21;83.54
6464;BME280;3265;42.694;23.282;2023-07-31T02:44:41;71239.41;;;-143.21;83.90
6464;BME280;3265;42.694;23.282;2023-07-31T02:47:07;71245.38;;;-143.21;83.38
6464;BME280;3265;42.694;23.282;2023-07-31T02:49:34;71245.38;;;-143.21;83.02
6464;BME280;3265;42.694;23.282;2023-07-31T02:52:03;71249.34;;;-143.21;83.18
6464;BME280;3265;42.694;23.282;2023-07-31T02:54:30;71241.41;;;-143.21;83.14
6464;BME280;3265;42.694;23.282;2023-07-31T02:56:59;71237.44;;;-143.21;82.50
6464;BME280;3265;42.694;23.282;2023-07-31T02:59:27;71233.47;;;-143.21;82.50
6464;BME280;3265;42.694;23.282;2023-07-31T03:01:54;71225.53;;;-143.21;81.82
6464;BME280;3265;42.694;23.282;2023-07-31T03:04:21;71211.66;;;-143.21;81.71
6464;BME280;3265;42.694;23.282;2023-07-31T03:06:48;71217.59;;;-143.21;81.43
6464;BME280;3265;42.694;23.282;2023-07-31T03:09:16;71207.69;;;-143.21;81.34
6464;BME280;3265;42.694;23.282;2023-07-31T03:11:43;71199.78;;;-143.21;80.78
6464;BME280;3265;42.694;23.282;2023-07-31T03:14:09;71195.81;;;-143.21;80.53
6464;BME280;3265;42.694;23.282;2023-07-31T03:16:36;71187.88;;;-143.21;80.42
6464;BME280;3265;42.694;23.282;2023-07-31T03:19:03;71174.00;;;-143.21;79.87
6464;BME280;3265;42.694;23.282;2023-07-31T03:21:30;71181.94;;;-143.21;79.73
6464;BME280;3265;42.694;23.282;2023-07-31T03:23:57;71203.72;;;-143.21;80.42
6464;BME280;3265;42.694;23.282;2023-07-31T03:26:25;71215.63;;;-143.21;81.04
6464;BME280;3265;42.694;23.282;2023-07-31T03:28:51;71217.59;;;-143.21;81.34
6464;BME280;3265;42.694;23.282;2023-07-31T03:31:18;71219.59;;;-143.21;80.97
6464;BME280;3265;42.694;23.282;2023-07-31T03:33:45;71207.69;;;-143.21;80.33
6464;BME280;3265;42.694;23.282;2023-07-31T03:36:12;71215.63;;;-143.21;80.68
6464;BME280;3265;42.694;23.282;2023-07-31T03:38:39;71233.47;;;-143.21;80.74
6464;BME280;3265;42.694;23.282;2023-07-31T03:41:05;71243.38;;;-143.21;81.32
6464;BME280;3265;42.694;23.282;2023-07-31T03:43:34;71259.25;;;-143.21;81.68
6464;BME280;3265;42.694;23.282;2023-07-31T03:46:00;71253.28;;;-143.21;81.39
6464;BME280;3265;42.694;23.282;2023-07-31T03:48:28;71259.25;;;-143.21;81.47
6464;BME280;3265;42.694;23.282;2023-07-31T03:50:55;71255.28;;;-143.21;80.89
6464;BME280;3265;42.694;23.282;2023-07-31T03:53:22;71245.38;;;-143.21;81.08
6464;BME280;3265;42.694;23.282;2023-07-31T03:55:48;71233.47;;;-143.21;80.66
6464;BME280;3265;42.694;23.282;2023-07-31T03:58:15;71227.53;;;-143.21;79.98
6464;BME280;3265;42.694;23.282;2023-07-31T04:00:43;71213.66;;;-143.21;79.65
6464;BME280;3265;42.694;23.282;2023-07-31T04:03:10;71223.56;;;-143.21;79.74
6464;BME280;3265;42.694;23.282;2023-07-31T04:05:38;71233.47;;;-143.21;80.06
6464;BME280;3265;42.694;23.282;2023-07-31T04:08:06;71245.38;;;-143.21;80.23
6464;BME280;3265;42.694;23.282;2023-07-31T04:10:33;71233.47;;;-143.21;79.92
6464;BME280;3265;42.694;23.282;2023-07-31T04:13:00;71235.44;;;-143.21;79.74
6464;BME280;3265;42.694;23.282;2023-07-31T04:15:26;71235.44;;;-143.21;80.10
6464;BME280;3265;42.694;23.282;2023-07-31T04:17:55;71239.41;;;-143.21;80.00
6464;BME280;3265;42.694;23.282;2023-07-31T04:20:24;71241.41;;;-143.21;79.99
6464;BME280;3265;42.694;23.282;2023-07-31T04:22:53;71243.38;;;-143.21;80.03
6464;BME280;3265;42.694;23.282;2023-07-31T04:25:20;71237.44;;;-143.21;79.93
6464;BME280;3265;42.694;23.282;2023-07-31T04:27:47;71237.44;;;-143.21;79.26
6464;BME280;3265;42.694;23.282;2023-07-31T04:30:14;71249.34;;;-143.21;79.21
6464;BME280;3265;42.694;23.282;2023-07-31T04:32:43;71249.34;;;-143.21;79.51
6464;BME280;3265;42.694;23.282;2023-07-31T04:35:11;71261.22;;;-143.21;79.80
6464;BME280;3265;42.694;23.282;2023-07-31T04:37:38;71255.28;;;-143.21;80.07
6464;BME280;3265;42.694;23.282;2023-07-31T04:40:08;71261.22;;;-143.21;79.49
6464;BME280;3265;42.694;23.282;2023-07-31T04:42:36;71255.28;;;-143.21;79.28
6464;BME280;3265;42.694;23.282;2023-07-31T04:45:05;71249.34;;;-143.21;79.34
6464;BME280;3265;42.694;23.282;2023-07-31T04:47:32;71247.34;;;-143.21;79.37
6464;BME280;3265;42.694;23.282;2023-07-31T04:49:59;71235.44;;;-143.21;78.54
6464;BME280;3265;42.694;23.282;2023-07-31T04:52:27;71233.47;;;-143.21;78.45
6464;BME280;3265;42.694;23.282;2023-07-31T04:54:54;71229.50;;;-143.21;78.60
6464;BME280;3265;42.694;23.282;2023-07-31T04:57:20;71233.47;;;-143.21;78.63
6464;BME280;3265;42.694;23.282;2023-07-31T04:59:47;71227.53;;;-143.21;78.59
6464;BME280;3265;42.694;23.282;2023-07-31T05:02:15;71233.47;;;-143.21;78.63
6464;BME280;3265;42.694;23.282;2023-07-31T05:04:41;71241.41;;;-143.21;78.75
6464;BME280;3265;42.694;23.282;2023-07-31T05:07:08;71235.44;;;-143.21;79.06
6464;BME280;3265;42.694;23.282;2023-07-31T05:09:36;71225.53;;;-143.21;78.72
6464;BME280;3265;42.694;23.282;2023-07-31T05:12:05;71195.81;;;-143.21;77.80
6464;BME280;3265;42.694;23.282;2023-07-31T05:14:32;71154.16;;;-143.21;76.02
6464;BME280;3265;42.694;23.282;2023-07-31T05:16:59;71142.28;;;-143.21;74.78
6464;BME280;3265;42.694;23.282;2023-07-31T05:19:25;71140.28;;;-143.21;74.80
6464;BME280;3265;42.694;23.282;2023-07-31T05:21:52;71150.22;;;-143.21;74.62
6464;BME280;3265;42.694;23.282;2023-07-31T05:24:19;71150.22;;;-143.21;74.85
6464;BME280;3265;42.694;23.282;2023-07-31T05:26:47;71152.19;;;-143.21;73.97
6464;BME280;3265;42.694;23.282;2023-07-31T05:29:14;71150.22;;;-143.21;73.89
6464;BME280;3265;42.694;23.282;2023-07-31T05:31:43;71166.06;;;-143.21;74.09
6464;BME280;3265;42.694;23.282;2023-07-31T05:34:20;71152.19;;;-143.21;73.94
6464;BME280;3265;42.694;23.282;2023-07-31T05:36:47;71126.41;;;-143.21;72.89
6464;BME280;3265;42.694;23.282;2023-07-31T05:39:14;71120.47;;;-143.21;71.71
6464;BME280;3265;42.694;23.282;2023-07-31T05:41:40;71152.19;;;-143.21;71.97
6464;BME280;3265;42.694;23.282;2023-07-31T05:44:08;71160.13;;;-143.21;72.65
6464;BME280;3265;42.694;23.282;2023-07-31T05:46:35;71174.00;;;-143.21;72.15
6464;BME280;3265;42.694;23.282;2023-07-31T05:49:02;71201.75;;;-143.21;72.91
6464;BME280;3265;42.694;23.282;2023-07-31T05:51:29;71177.97;;;-143.21;72.99
6464;BME280;3265;42.694;23.282;2023-07-31T05:53:56;71156.16;;;-143.21;71.73
6464;BME280;3265;42.694;23.282;2023-07-31T05:56:22;71118.50;;;-143.21;70.34
6464;BME280;3265;42.694;23.282;2023-07-31T05:58:49;71094.69;;;-143.21;68.88
6464;BME280;3265;42.694;23.282;2023-07-31T06:01:18;71072.88;;;-143.21;67.77
6464;BME280;3265;42.694;23.282;2023-07-31T06:03:46;71086.75;;;-143.21;67.59
6464;BME280;3265;42.694;23.282;2023-07-31T06:06:14;71102.63;;;-143.21;67.75
6464;BME280;3265;42.694;23.282;2023-07-31T06:08:41;71106.59;;;-143.21;67.43
6464;BME280;3265;42.694;23.282;2023-07-31T06:11:08;71112.53;;;-143.21;67.62
6464;BME280;3265;42.694;23.282;2023-07-31T06:13:35;71110.56;;;-143.21;67.55
6464;BME280;3265;42.694;23.282;2023-07-31T06:16:02;71118.50;;;-143.21;67.65
6464;BME280;3265;42.694;23.282;2023-07-31T06:18:32;71098.66;;;-143.21;66.80
6464;BME280;3265;42.694;23.282;2023-07-31T06:20:59;71057.03;;;-143.21;65.61
6464;BME280;3265;42.694;23.282;2023-07-31T06:23:26;71033.25;;;-143.21;65.05
6464;BME280;3265;42.694;23.282;2023-07-31T06:25:53;71051.09;;;-143.21;64.50
6464;BME280;3265;42.694;23.282;2023-07-31T06:28:19;71066.94;;;-143.21;64.99
6464;BME280;3265;42.694;23.282;2023-07-31T06:30:46;71076.84;;;-143.21;64.94
6464;BME280;3265;42.694;23.282;2023-07-31T06:33:13;71088.75;;;-143.21;65.58
6464;BME280;3265;42.694;23.282;2023-07-31T06:35:43;71094.69;;;-143.21;65.99
6464;BME280;3265;42.694;23.282;2023-07-31T06:38:11;71088.75;;;-143.21;66.37
6464;BME280;3265;42.694;23.282;2023-07-31T06:40:38;71070.91;;;-143.21;65.94
6464;BME280;3265;42.694;23.282;2023-07-31T06:43:05;71035.22;;;-143.21;64.94
6464;BME280;3265;42.694;23.282;2023-07-31T06:45:33;70979.72;;;-143.21;63.43
6464;BME280;3265;42.694;23.282;2023-07-31T06:48:01;70961.88;;;-143.21;61.68
6464;BME280;3265;42.694;23.282;2023-07-31T06:50:28;70942.06;;;-143.21;59.14
6464;BME280;3265;42.694;23.282;2023-07-31T06:52:56;70922.22;;;-143.21;59.87
6464;BME280;3265;42.694;23.282;2023-07-31T06:55:23;70926.19;;;-143.21;60.08
6464;BME280;3265;42.694;23.282;2023-07-31T06:57:52;70932.13;;;-143.21;60.11
6464;BME280;3265;42.694;23.282;2023-07-31T07:00:20;70942.06;;;-143.21;60.54
6464;BME280;3265;42.694;23.282;2023-07-31T07:02:48;70949.97;;;-143.21;60.45
6464;BME280;3265;42.694;23.282;2023-07-31T07:05:16;70944.03;;;-143.21;60.50
6464;BME280;3265;42.694;23.282;2023-07-31T07:07:43;70920.25;;;-143.21;60.17
6464;BME280;3265;42.694;23.282;2023-07-31T07:10:14;70938.09;;;-143.21;60.28
6464;BME280;3265;42.694;23.282;2023-07-31T07:12:41;70961.88;;;-143.21;61.52
6464;BME280;3265;42.694;23.282;2023-07-31T07:15:08;70967.81;;;-143.21;62.17
6464;BME280;3265;42.694;23.282;2023-07-31T07:17:35;70963.84;;;-143.21;62.77
6464;BME280;3265;42.694;23.282;2023-07-31T07:20:03;70963.84;;;-143.21;60.82
6464;BME280;3265;42.694;23.282;2023-07-31T07:22:30;70983.69;;;-143.21;61.01
6464;BME280;3265;42.694;23.282;2023-07-31T07:24:57;70991.63;;;-143.21;61.63
6464;BME280;3265;42.694;23.282;2023-07-31T07:27:25;70981.69;;;-143.21;62.25
6464;BME280;3265;42.694;23.282;2023-07-31T07:29:52;70963.84;;;-143.21;61.98
6464;BME280;3265;42.694;23.282;2023-07-31T07:32:19;70948.00;;;-143.21;61.52
6464;BME280;3265;42.694;23.282;2023-07-31T07:34:47;70910.34;;;-143.21;59.65
6464;BME280;3265;42.694;23.282;2023-07-31T07:37:14;70884.56;;;-143.21;57.76
6464;BME280;3265;42.694;23.282;2023-07-31T07:39:41;70864.75;;;-143.21;58.11
6464;BME280;3265;42.694;23.282;2023-07-31T07:42:08;70876.63;;;-143.21;58.07
6464;BME280;3265;42.694;23.282;2023-07-31T07:44:36;70908.34;;;-143.21;58.78
6464;BME280;3265;42.694;23.282;2023-07-31T07:47:03;70914.31;;;-143.21;58.58
6464;BME280;3265;42.694;23.282;2023-07-31T07:49:31;70944.03;;;-143.21;57.24
6464;BME280;3265;42.694;23.282;2023-07-31T07:51:58;70971.78;;;-143.21;57.93
6464;BME280;3265;42.694;23.282;2023-07-31T07:54:25;70979.72;;;-143.21;58.39
6464;BME280;3265;42.694;23.282;2023-07-31T07:56:52;70981.69;;;-143.21;59.26
6464;BME280;3265;42.694;23.282;2023-07-31T07:59:18;70977.72;;;-143.21;59.88
6464;BME280;3265;42.694;23.282;2023-07-31T08:01:47;70965.84;;;-143.21;60.05
6464;BME280;3265;42.694;23.282;2023-07-31T08:04:13;70946.03;;;-143.21;59.55
6464;BME280;3265;42.694;23.282;2023-07-31T08:06:40;70938.09;;;-143.21;58.70
6464;BME280;3265;42.694;23.282;2023-07-31T08:09:07;70932.13;;;-143.21;58.97
6464;BME280;3265;42.694;23.282;2023-07-31T08:11:34;70920.25;;;-143.21;59.15
6464;BME280;3265;42.694;23.282;2023-07-31T08:14:01;70896.47;;;-143.21;58.76
6464;BME280;3265;42.694;23.282;2023-07-31T08:16:28;70884.56;;;-143.21;57.86
6464;BME280;3265;42.694;23.282;2023-07-31T08:18:57;70892.50;;;-143.21;57.42
6464;BME280;3265;42.694;23.282;2023-07-31T08:21:23;70874.66;;;-143.21;56.95
6464;BME280;3265;42.694;23.282;2023-07-31T08:23:50;70835.00;;;-143.21;56.16
6464;BME280;3265;42.694;23.282;2023-07-31T08:26:18;70827.06;;;-143.21;54.96
6464;BME280;3265;42.694;23.282;2023-07-31T08:28:45;70811.22;;;-143.21;54.28
6464;BME280;3265;42.694;23.282;2023-07-31T08:31:12;70815.19;;;-143.21;55.10
6464;BME280;3265;42.694;23.282;2023-07-31T08:33:39;70833.03;;;-143.21;55.03
6464;BME280;3265;42.694;23.282;2023-07-31T08:36:08;70833.03;;;-143.21;55.51
6464;BME280;3265;42.694;23.282;2023-07-31T08:38:34;70829.06;;;-143.21;55.73
6464;BME280;3265;42.694;23.282;2023-07-31T08:41:03;70825.09;;;-143.21;55.46
6464;BME280;3265;42.694;23.282;2023-07-31T08:43:30;70823.13;;;-143.21;55.53
6464;BME280;3265;42.694;23.282;2023-07-31T08:45:57;70821.13;;;-143.21;55.48
6464;BME280;3265;42.694;23.282;2023-07-31T08:48:25;70807.25;;;-143.21;55.29
6464;BME280;3265;42.694;23.282;2023-07-31T08:50:52;70809.25;;;-143.21;54.28
6464;BME280;3265;42.694;23.282;2023-07-31T08:53:21;70803.28;;;-143.21;54.70
6464;BME280;3265;42.694;23.282;2023-07-31T08:55:49;70799.31;;;-143.21;53.55
6464;BME280;3265;42.694;23.282;2023-07-31T08:58:17;70777.53;;;-143.21;53.54
6464;BME280;3265;42.694;23.282;2023-07-31T09:00:46;70735.91;;;-143.21;52.76
6464;BME280;3265;42.694;23.282;2023-07-31T09:03:14;70706.16;;;-143.21;52.35
6464;BME280;3265;42.694;23.282;2023-07-31T09:05:45;70690.31;;;-143.21;51.75
6464;BME280;3265;42.694;23.282;2023-07-31T09:08:14;70698.22;;;-143.21;51.11
6464;BME280;3265;42.694;23.282;2023-07-31T09:10:44;70690.31;;;-143.21;51.28
6464;BME280;3265;42.694;23.282;2023-07-31T09:13:11;70682.38;;;-143.21;51.23
6464;BME280;3265;42.694;23.282;2023-07-31T09:15:39;70666.50;;;-143.21;51.28
6464;BME280;3265;42.694;23.282;2023-07-31T09:18:07;70688.31;;;-143.21;51.77
6464;BME280;3265;42.694;23.282;2023-07-31T09:20:34;70702.19;;;-143.21;52.18
6464;BME280;3265;42.694;23.282;2023-07-31T09:23:08;70690.31;;;-143.21;52.30
6464;BME280;3265;42.694;23.282;2023-07-31T09:25:35;70674.44;;;-143.21;51.83
6464;BME280;3265;42.694;23.282;2023-07-31T09:28:06;70688.31;;;-143.21;51.80
6464;BME280;3265;42.694;23.282;2023-07-31T09:30:45;70674.44;;;-143.21;52.07
6464;BME280;3265;42.694;23.282;2023-07-31T09:33:12;70668.50;;;-143.21;51.44
6464;BME280;3265;42.694;23.282;2023-07-31T09:35:39;70658.59;;;-143.21;51.52
6464;BME280;3265;42.694;23.282;2023-07-31T09:38:08;70654.63;;;-143.21;50.41
6464;BME280;3265;42.694;23.282;2023-07-31T09:40:38;70634.81;;;-143.21;50.71
6464;BME280;3265;42.694;23.282;2023-07-31T09:43:08;70587.22;;;-143.21;49.54
6464;BME280;3265;42.694;23.282;2023-07-31T09:45:37;70553.53;;;-143.21;48.94
6464;BME280;3265;42.694;23.282;2023-07-31T09:48:07;70539.66;;;-143.21;49.07
6464;BME280;3265;42.694;23.282;2023-07-31T09:50:36;70531.72;;;-143.21;48.03
6464;BME280;3265;42.694;23.282;2023-07-31T09:53:05;70527.75;;;-143.21;48.10
6464;BME280;3265;42.694;23.282;2023-07-31T09:55:32;70535.69;;;-143.21;47.46
6464;BME280;3265;42.694;23.282;2023-07-31T09:58:03;70549.56;;;-143.21;48.10
6464;BME280;3265;42.694;23.282;2023-07-31T10:00:32;70535.69;;;-143.21;48.76
6464;BME280;3265;42.694;23.282;2023-07-31T10:03:00;70503.97;;;-143.21;48.37
6464;BME280;3265;42.694;23.282;2023-07-31T10:05:31;70478.22;;;-143.21;47.82
6464;BME280;3265;42.694;23.282;2023-07-31T10:07:58;70452.44;;;-143.21;47.16
6464;BME280;3265;42.694;23.282;2023-07-31T10:10:26;70434.59;;;-143.21;46.94
6464;BME280;3265;42.694;23.282;2023-07-31T10:12:54;70430.66;;;-143.21;45.45
6464;BME280;3265;42.694;23.282;2023-07-31T10:15:22;70422.72;;;-143.21;44.97
6464;BME280;3265;42.694;23.282;2023-07-31T10:17:51;70442.53;;;-143.21;45.70
6464;BME280;3265;42.694;23.282;2023-07-31T10:20:18;70424.69;;;-143.21;45.37
6464;BME280;3265;42.694;23.282;2023-07-31T10:22:46;70420.72;;;-143.21;45.38
6464;BME280;3265;42.694;23.282;2023-07-31T10:25:15;70400.91;;;-143.21;45.40
6464;BME280;3265;42.694;23.282;2023-07-31T10:27:42;70373.16;;;-143.21;44.93
6464;BME280;3265;42.694;23.282;2023-07-31T10:30:12;70363.25;;;-143.21;43.44
6464;BME280;3265;42.694;23.282;2023-07-31T10:32:40;70343.44;;;-143.21;44.11
6464;BME280;3265;42.694;23.282;2023-07-31T10:35:09;70343.44;;;-143.21;43.33
6464;BME280;3265;42.694;23.282;2023-07-31T10:37:38;70373.16;;;-143.21;43.88
6464;BME280;3265;42.694;23.282;2023-07-31T10:40:06;70398.94;;;-143.21;44.58
6464;BME280;3265;42.694;23.282;2023-07-31T10:42:37;70387.03;;;-143.21;44.83
6464;BME280;3265;42.694;23.282;2023-07-31T10:45:06;70343.44;;;-143.21;44.17
6464;BME280;3265;42.694;23.282;2023-07-31T10:47:38;70323.63;;;-143.21;43.00
6464;BME280;3265;42.694;23.282;2023-07-31T10:50:17;70339.47;;;-143.21;43.38
6464;BME280;3265;42.694;23.282;2023-07-31T10:52:47;70313.72;;;-143.21;42.72
6464;BME280;3265;42.694;23.282;2023-07-31T10:55:22;70297.84;;;-143.21;42.12
6464;BME280;3265;42.694;23.282;2023-07-31T10:57:49;70270.09;;;-143.21;41.47
6464;BME280;3265;42.694;23.282;2023-07-31T11:00:20;70268.13;;;-143.21;41.75
6464;BME280;3265;42.694;23.282;2023-07-31T11:03:01;70244.34;;;-143.21;40.92
6464;BME280;3265;42.694;23.282;2023-07-31T11:05:44;70258.22;;;-143.21;41.22
6464;BME280;3265;42.694;23.282;2023-07-31T11:08:13;70226.50;;;-143.21;40.36
6464;BME280;3265;42.694;23.282;2023-07-31T11:10:40;70214.59;;;-143.21;40.31
6464;BME280;3265;42.694;23.282;2023-07-31T11:13:07;70230.47;;;-143.21;40.65
6464;BME280;3265;42.694;23.282;2023-07-31T11:15:34;70206.69;;;-143.21;40.07
6464;BME280;3265;42.694;23.282;2023-07-31T11:18:01;70218.56;;;-143.21;39.31
6464;BME280;3265;42.694;23.282;2023-07-31T11:20:31;70220.56;;;-143.21;39.12
6464;BME280;3265;42.694;23.282;2023-07-31T11:23:01;70224.50;;;-143.21;39.73
6464;BME280;3265;42.694;23.282;2023-07-31T11:25:29;70238.38;;;-143.21;39.72
6464;BME280;3265;42.694;23.282;2023-07-31T11:27:57;70202.72;;;-143.21;39.05
6464;BME280;3265;42.694;23.282;2023-07-31T11:30:24;70236.41;;;-143.21;39.67
6464;BME280;3265;42.694;23.282;2023-07-31T11:32:51;70214.59;;;-143.21;39.18
6464;BME280;3265;42.694;23.282;2023-07-31T11:35:18;70224.50;;;-143.21;39.35
6464;BME280;3265;42.694;23.282;2023-07-31T11:37:48;70226.50;;;-143.21;40.28
6464;BME280;3265;42.694;23.282;2023-07-31T11:40:16;70248.28;;;-143.21;41.20
6464;BME280;3265;42.694;23.282;2023-07-31T11:42:43;70242.34;;;-143.21;40.58
6464;BME280;3265;42.694;23.282;2023-07-31T11:45:10;70238.38;;;-143.21;39.87
6464;BME280;3265;42.694;23.282;2023-07-31T11:47:37;70252.25;;;-143.21;40.04
6464;BME280;3265;42.694;23.282;2023-07-31T11:50:06;70204.69;;;-143.21;40.64
6464;BME280;3265;42.694;23.282;2023-07-31T11:52:36;70196.78;;;-143.21;39.45
6464;BME280;3265;42.694;23.282;2023-07-31T11:55:05;70180.91;;;-143.21;40.07
6464;BME280;3265;42.694;23.282;2023-07-31T11:57:37;70155.16;;;-143.21;39.60
6464;BME280;3265;42.694;23.282;2023-07-31T12:00:08;70145.25;;;-143.21;40.38
6464;BME280;3265;42.694;23.282;2023-07-31T12:02:36;70143.25;;;-143.21;40.26
6464;BME280;3265;42.694;23.282;2023-07-31T12:05:05;70131.38;;;-143.21;39.89
6464;BME280;3265;42.694;23.282;2023-07-31T12:07:50;70107.59;;;-143.21;39.87
6464;BME280;3265;42.694;23.282;2023-07-31T12:10:28;70087.75;;;-143.21;39.23
6464;BME280;3265;42.694;23.282;2023-07-31T12:12:58;70101.63;;;-143.21;39.37
6464;BME280;3265;42.694;23.282;2023-07-31T12:15:30;70077.84;;;-143.21;39.97
6464;BME280;3265;42.694;23.282;2023-07-31T12:17:57;70063.97;;;-143.21;39.21
6464;BME280;3265;42.694;23.282;2023-07-31T12:20:24;70101.63;;;-143.21;39.03
6464;BME280;3265;42.694;23.282;2023-07-31T12:22:51;70119.47;;;-143.21;38.86
6464;BME280;3265;42.694;23.282;2023-07-31T12:25:18;70119.47;;;-143.21;39.02
6464;BME280;3265;42.694;23.282;2023-07-31T12:27:45;70139.28;;;-143.21;38.84
6464;BME280;3265;42.694;23.282;2023-07-31T12:30:29;70075.88;;;-143.21;37.92
6464;BME280;3265;42.694;23.282;2023-07-31T12:32:56;70044.16;;;-143.21;36.84
6464;BME280;3265;42.694;23.282;2023-07-31T12:35:23;70058.03;;;-143.21;37.47
6464;BME280;3265;42.694;23.282;2023-07-31T12:37:49;70032.28;;;-143.21;36.58
6464;BME280;3265;42.694;23.282;2023-07-31T12:40:16;70056.06;;;-143.21;37.51
6464;BME280;3265;42.694;23.282;2023-07-31T12:42:43;70107.59;;;-143.21;37.71
6464;BME280;3265;42.694;23.282;2023-07-31T12:45:10;70159.13;;;-143.21;37.79
6464;BME280;3265;42.694;23.282;2023-07-31T12:47:38;70184.88;;;-143.21;38.86
6464;BME280;3265;42.694;23.282;2023-07-31T12:50:06;70226.50;;;-143.21;39.36
6464;BME280;3265;42.694;23.282;2023-07-31T12:52:33;70260.19;;;-143.21;39.99
6464;BME280;3265;42.694;23.282;2023-07-31T12:55:00;70226.50;;;-143.21;40.87